Time;durP1;ratioP1;P1;durP2;ratioP2;P2;SDS_P1;SDS_P2;PMS_P1;PMS_P2;Temp;Humidity;BMP_temperature;BMP_pressure;BME280_temperature;BME280_humidity;BME280_pressure;Samples;Min_cycle;Max_cycle;Signal;HPM_P1;HPM_P2
2022/01/21 00:01:09;;;;;;;13.55;1.90;;;;;;;;;;5101031;27;20475;-79
2022/01/21 00:03:36;;;;;;;13.38;2.30;;;;;;;;;;5100040;28;20056;-78
2022/01/21 00:06:06;;;;;;;14.40;2.58;;;;;;;;;;5094633;28;20056;-78
2022/01/21 00:08:36;;;;;;;12.18;2.10;;;;;;;;;;5111284;28;20142;-79
2022/01/21 00:11:06;;;;;;;14.57;2.15;;;;;;;;;;5092954;28;20071;-79
2022/01/21 00:13:36;;;;;;;17.27;2.58;;;;;;;;;;5095134;28;20138;-78
2022/01/21 00:16:04;;;;;;;9.27;2.00;;;;;;;;;;5095643;28;20052;-79
2022/01/21 00:18:32;;;;;;;8.00;1.92;;;;;;;;;;5114943;27;20091;-78
2022/01/21 00:31:58;;;;;;;16.05;2.33;;;;;;;;;;5112777;28;20568;-79
2022/01/21 00:34:25;;;;;;;9.48;1.95;;;;;;;;;;5112810;28;20087;-78
2022/01/21 00:36:51;;;;;;;15.90;1.98;;;;;;;;;;5093507;28;20056;-78
2022/01/21 00:39:22;;;;;;;8.38;1.55;;;;;;;;;;5076308;28;20076;-78
2022/01/21 00:42:03;;;;;;;9.98;2.10;;;;;;;;;;5081505;28;20564;-78
2022/01/21 00:44:30;;;;;;;9.45;2.10;;;;;;;;;;5084630;28;20083;-79
2022/01/21 00:46:56;;;;;;;11.68;1.80;;;;;;;;;;5094290;28;20048;-79
2022/01/21 00:49:22;;;;;;;11.88;1.80;;;;;;;;;;5093323;28;20098;-78
2022/01/21 00:51:49;;;;;;;11.95;1.52;;;;;;;;;;5094427;28;20044;-78
2022/01/21 00:54:15;;;;;;;10.88;2.00;;;;;;;;;;5094071;28;20109;-78
2022/01/21 00:56:42;;;;;;;11.65;2.33;;;;;;;;;;5093443;28;20055;-78
2022/01/21 00:59:08;;;;;;;10.35;2.08;;;;;;;;;;5111335;28;20511;-78
2022/01/21 01:01:35;;;;;;;12.27;1.80;;;;;;;;;;5082145;28;20890;-78
2022/01/21 01:04:02;;;;;;;9.68;2.20;;;;;;;;;;5091743;28;20566;-78
2022/01/21 01:06:29;;;;;;;11.90;2.08;;;;;;;;;;5091103;28;20118;-78
2022/01/21 01:08:55;;;;;;;11.40;2.28;;;;;;;;;;5073080;28;20084;-78
2022/01/21 01:11:42;;;;;;;16.27;2.70;;;;;;;;;;5095673;28;20105;-78
2022/01/21 01:27:49;;;;;;;12.45;1.75;;;;;;;;;;5110948;28;20052;-78
2022/01/21 01:30:17;;;;;;;11.63;2.08;;;;;;;;;;5106169;28;20057;-78
2022/01/21 01:32:44;;;;;;;12.85;2.10;;;;;;;;;;5093284;28;20598;-78
2022/01/21 01:35:12;;;;;;;13.57;2.00;;;;;;;;;;5090788;28;20083;-78
2022/01/21 01:50:59;;;;;;;16.55;1.75;;;;;;;;;;5104504;28;20086;-79
2022/01/21 01:53:28;;;;;;;13.45;1.88;;;;;;;;;;5090366;28;20056;-78
2022/01/21 01:55:55;;;;;;;10.00;1.98;;;;;;;;;;5072139;28;20057;-78
2022/01/21 01:58:22;;;;;;;10.95;1.58;;;;;;;;;;5072920;28;20060;-78
2022/01/21 02:00:48;;;;;;;10.25;1.52;;;;;;;;;;5110387;28;20040;-78
2022/01/21 02:03:15;;;;;;;17.13;1.92;;;;;;;;;;5108946;28;20095;-79
2022/01/21 02:05:42;;;;;;;11.95;1.65;;;;;;;;;;5092289;28;20105;-78
2022/01/21 02:08:11;;;;;;;13.57;1.85;;;;;;;;;;5084215;28;20581;-78
2022/01/21 02:10:39;;;;;;;11.45;1.60;;;;;;;;;;5089804;28;20055;-78
2022/01/21 02:13:18;;;;;;;14.88;1.90;;;;;;;;;;5108071;27;20056;-78
2022/01/21 02:15:55;;;;;;;10.73;1.73;;;;;;;;;;5091818;28;20072;-79
2022/01/21 02:21:35;;;;;;;7.85;2.28;;;;;;;;;;5109481;28;20059;-78
2022/01/21 02:24:04;;;;;;;13.70;1.50;;;;;;;;;;5091409;28;20056;-78
2022/01/21 02:26:31;;;;;;;15.00;1.50;;;;;;;;;;5098006;28;20114;-78
2022/01/21 02:29:00;;;;;;;14.35;1.83;;;;;;;;;;5091812;28;20092;-78
2022/01/21 02:31:26;;;;;;;15.27;2.47;;;;;;;;;;5092057;28;20063;-78
2022/01/21 02:33:53;;;;;;;18.55;2.20;;;;;;;;;;5090386;28;20060;-78
2022/01/21 02:36:20;;;;;;;19.85;1.95;;;;;;;;;;5109700;28;20084;-78
2022/01/21 02:38:46;;;;;;;11.25;1.45;;;;;;;;;;5109631;28;20056;-78
2022/01/21 02:41:13;;;;;;;16.42;2.38;;;;;;;;;;5090746;28;20137;-78
2022/01/21 02:43:39;;;;;;;17.20;2.05;;;;;;;;;;5089142;28;20078;-78
2022/01/21 02:46:08;;;;;;;10.75;1.67;;;;;;;;;;5108040;27;20079;-78
2022/01/21 02:48:37;;;;;;;11.95;1.48;;;;;;;;;;5091136;28;20062;-78
2022/01/21 02:51:05;;;;;;;14.48;1.92;;;;;;;;;;5090478;28;20056;-78
2022/01/21 02:54:06;;;;;;;12.13;1.60;;;;;;;;;;5091629;28;20930;-78
2022/01/21 02:56:25;;;;;;;10.35;1.67;;;;;;;;;;5084649;28;20053;-78
2022/01/21 02:58:51;;;;;;;13.55;2.03;;;;;;;;;;5078742;28;20088;-80
2022/01/21 03:01:18;;;;;;;13.98;1.67;;;;;;;;;;5090281;28;20044;-78
2022/01/21 03:03:46;;;;;;;10.88;1.80;;;;;;;;;;5090896;28;20048;-78
2022/01/21 03:06:15;;;;;;;14.70;1.60;;;;;;;;;;5089971;28;20056;-78
2022/01/21 03:08:42;;;;;;;9.13;1.75;;;;;;;;;;5108399;28;20059;-78
2022/01/21 03:11:12;;;;;;;12.63;1.70;;;;;;;;;;5091035;28;20055;-79
2022/01/21 03:13:40;;;;;;;13.85;1.35;;;;;;;;;;5088804;28;20602;-78
2022/01/21 03:16:06;;;;;;;10.40;1.70;;;;;;;;;;5081666;28;20052;-78
2022/01/21 03:18:33;;;;;;;14.13;1.95;;;;;;;;;;5107193;27;20426;-78
2022/01/21 03:20:59;;;;;;;6.93;1.02;;;;;;;;;;5090104;28;20097;-78
2022/01/21 03:23:29;;;;;;;11.10;1.33;;;;;;;;;;5108501;28;20602;-78
2022/01/21 03:25:56;;;;;;;9.00;0.98;;;;;;;;;;5090519;28;20145;-78
2022/01/21 03:28:22;;;;;;;13.98;1.02;;;;;;;;;;5091396;28;20052;-78
2022/01/21 03:30:54;;;;;;;13.88;1.88;;;;;;;;;;5109922;28;20052;-78
2022/01/21 03:33:22;;;;;;;14.32;1.58;;;;;;;;;;5080003;28;20064;-78
2022/01/21 03:35:48;;;;;;;11.50;1.83;;;;;;;;;;5089268;28;20056;-78
2022/01/21 03:38:14;;;;;;;6.90;1.13;;;;;;;;;;5090236;28;20103;-78
2022/01/21 03:40:41;;;;;;;17.17;1.52;;;;;;;;;;5089192;28;20635;-78
2022/01/21 03:43:07;;;;;;;12.18;1.75;;;;;;;;;;5090252;28;20052;-78
2022/01/21 03:45:34;;;;;;;17.40;1.77;;;;;;;;;;5089449;28;20048;-78
2022/01/21 03:48:00;;;;;;;17.15;2.30;;;;;;;;;;5089468;28;20048;-78
2022/01/21 03:50:31;;;;;;;8.40;1.30;;;;;;;;;;5079672;28;20052;-78
2022/01/21 03:52:57;;;;;;;10.48;1.50;;;;;;;;;;5106586;28;20052;-78
2022/01/21 03:55:24;;;;;;;5.72;1.17;;;;;;;;;;5089570;27;20056;-78
2022/01/21 03:57:50;;;;;;;11.95;1.52;;;;;;;;;;5089897;28;20113;-78
2022/01/21 04:00:20;;;;;;;19.08;1.52;;;;;;;;;;5090733;28;20110;-78
2022/01/21 04:02:46;;;;;;;6.05;1.10;;;;;;;;;;5100888;28;20056;-78
2022/01/21 04:05:13;;;;;;;14.38;1.50;;;;;;;;;;5102967;28;20078;-78
2022/01/21 04:07:39;;;;;;;11.77;1.48;;;;;;;;;;5078247;28;20057;-78
2022/01/21 04:10:06;;;;;;;11.82;1.70;;;;;;;;;;5089466;28;20052;-78
2022/01/21 04:12:32;;;;;;;9.70;1.35;;;;;;;;;;5090112;28;20048;-78
2022/01/21 04:14:59;;;;;;;11.18;1.42;;;;;;;;;;5090527;28;20083;-78
2022/01/21 04:17:26;;;;;;;9.15;1.38;;;;;;;;;;5088844;27;20095;-78
2022/01/21 04:19:52;;;;;;;12.38;1.33;;;;;;;;;;5090607;28;20079;-78
2022/01/21 04:22:19;;;;;;;9.85;1.42;;;;;;;;;;5106499;28;20064;-78
2022/01/21 04:24:47;;;;;;;17.23;1.52;;;;;;;;;;5094715;28;20589;-78
2022/01/21 04:27:14;;;;;;;8.70;1.08;;;;;;;;;;5096866;28;20052;-78
2022/01/21 04:29:40;;;;;;;12.25;1.90;;;;;;;;;;5108305;28;20511;-78
2022/01/21 04:32:07;;;;;;;6.57;1.17;;;;;;;;;;5089468;28;20056;-78
2022/01/21 04:34:33;;;;;;;6.95;1.30;;;;;;;;;;5108292;28;20052;-78
2022/01/21 04:37:01;;;;;;;8.55;1.63;;;;;;;;;;5109048;28;20506;-78
2022/01/21 04:39:33;;;;;;;7.88;1.30;;;;;;;;;;5107216;28;20106;-78
2022/01/21 04:47:29;;;;;;;9.52;1.88;;;;;;;;;;5105671;28;20056;-78
2022/01/21 04:49:56;;;;;;;7.80;1.27;;;;;;;;;;5106776;27;20546;-78
2022/01/21 04:52:23;;;;;;;11.40;1.58;;;;;;;;;;5091545;28;20098;-78
2022/01/21 04:54:50;;;;;;;11.00;1.30;;;;;;;;;;5091819;27;20056;-78
2022/01/21 04:57:17;;;;;;;13.27;1.58;;;;;;;;;;5090419;28;20082;-78
2022/01/21 04:59:43;;;;;;;20.45;1.95;;;;;;;;;;5088618;28;20052;-78
2022/01/21 05:02:10;;;;;;;13.38;1.42;;;;;;;;;;5109840;28;20084;-78
2022/01/21 05:04:36;;;;;;;11.05;1.73;;;;;;;;;;5109635;28;20120;-78
2022/01/21 05:07:05;;;;;;;13.05;1.35;;;;;;;;;;5091863;28;20094;-78
2022/01/21 05:09:34;;;;;;;8.90;1.08;;;;;;;;;;5110038;28;20052;-78
2022/01/21 05:12:02;;;;;;;8.63;1.10;;;;;;;;;;5090590;28;20117;-79
2022/01/21 05:17:15;;;;;;;10.68;2.30;;;;;;;;;;5107397;27;20079;-78
2022/01/21 05:19:41;;;;;;;11.98;1.65;;;;;;;;;;5091142;28;20127;-78
2022/01/21 05:22:08;;;;;;;10.85;1.27;;;;;;;;;;5091707;28;20056;-78
2022/01/21 05:24:34;;;;;;;5.95;0.95;;;;;;;;;;5109778;28;20141;-78
2022/01/21 05:27:01;;;;;;;6.25;1.23;;;;;;;;;;5110672;28;20083;-78
2022/01/21 05:29:31;;;;;;;14.23;1.73;;;;;;;;;;5091797;28;20574;-78
2022/01/21 05:31:58;;;;;;;9.82;1.35;;;;;;;;;;5090326;28;20033;-78
2022/01/21 05:34:25;;;;;;;7.15;0.98;;;;;;;;;;5091903;28;20048;-78
2022/01/21 05:36:51;;;;;;;8.27;1.25;;;;;;;;;;5109918;27;20117;-78
2022/01/21 05:39:19;;;;;;;10.15;1.33;;;;;;;;;;5092058;28;20134;-78
2022/01/21 05:41:48;;;;;;;8.90;1.00;;;;;;;;;;5091809;28;20079;-78
2022/01/21 05:46:57;;;;;;;9.52;1.20;;;;;;;;;;5109737;27;20052;-78
2022/01/21 05:49:25;;;;;;;9.10;1.20;;;;;;;;;;5088009;28;20555;-78
2022/01/21 05:51:53;;;;;;;10.27;1.60;;;;;;;;;;5091597;28;20052;-78
2022/01/21 05:54:25;;;;;;;10.50;1.40;;;;;;;;;;5092017;28;20052;-78
2022/01/21 05:56:52;;;;;;;11.75;1.40;;;;;;;;;;5122429;27;20106;-78
2022/01/21 05:59:19;;;;;;;13.70;1.60;;;;;;;;;;5106325;28;20422;-78
2022/01/21 06:01:45;;;;;;;11.23;1.35;;;;;;;;;;5090578;28;20105;-78
2022/01/21 06:04:12;;;;;;;10.70;1.55;;;;;;;;;;5091720;28;20585;-78
2022/01/21 06:06:38;;;;;;;8.98;1.63;;;;;;;;;;5078701;28;20134;-78
2022/01/21 06:09:05;;;;;;;6.82;1.15;;;;;;;;;;5074469;28;20084;-78
2022/01/21 06:11:32;;;;;;;11.65;1.63;;;;;;;;;;5091940;28;20078;-78
2022/01/21 06:14:00;;;;;;;7.07;1.35;;;;;;;;;;5092494;28;20083;-78
2022/01/21 06:16:27;;;;;;;10.15;1.40;;;;;;;;;;5109292;27;20052;-78
2022/01/21 06:18:54;;;;;;;10.65;1.45;;;;;;;;;;5090262;28;20048;-78
2022/01/21 06:21:20;;;;;;;8.70;1.10;;;;;;;;;;5090184;28;20571;-78
2022/01/21 06:23:47;;;;;;;7.75;1.50;;;;;;;;;;5077241;28;20074;-78
2022/01/21 06:26:13;;;;;;;7.35;1.23;;;;;;;;;;5089321;28;20104;-78
2022/01/21 06:28:40;;;;;;;9.10;1.80;;;;;;;;;;5089287;28;20161;-78
2022/01/21 06:31:06;;;;;;;10.82;1.58;;;;;;;;;;5109420;28;20091;-78
2022/01/21 06:33:33;;;;;;;12.98;1.77;;;;;;;;;;5110064;28;20246;-78
2022/01/21 06:35:59;;;;;;;21.80;2.00;;;;;;;;;;5108849;27;20052;-77
2022/01/21 06:38:27;;;;;;;10.57;1.63;;;;;;;;;;5108689;28;20056;-78
2022/01/21 06:40:54;;;;;;;11.05;1.73;;;;;;;;;;5105937;28;20052;-78
2022/01/21 06:43:21;;;;;;;11.57;1.40;;;;;;;;;;5091003;28;20052;-78
2022/01/21 06:45:47;;;;;;;12.05;2.60;;;;;;;;;;5109082;28;20083;-78
2022/01/21 06:48:14;;;;;;;9.90;1.55;;;;;;;;;;5091014;28;20058;-78
2022/01/21 06:50:41;;;;;;;9.95;1.85;;;;;;;;;;5089325;28;20124;-78
2022/01/21 06:53:08;;;;;;;14.35;2.20;;;;;;;;;;5091402;28;20129;-78
2022/01/21 06:55:34;;;;;;;10.23;2.00;;;;;;;;;;5108270;28;20056;-78
2022/01/21 06:58:00;;;;;;;11.10;1.95;;;;;;;;;;5088215;28;20137;-78
2022/01/21 07:00:27;;;;;;;11.65;2.17;;;;;;;;;;5090649;28;20052;-78
2022/01/21 07:02:53;;;;;;;17.90;2.58;;;;;;;;;;5109376;28;20059;-78
2022/01/21 07:05:22;;;;;;;9.48;1.60;;;;;;;;;;5089359;28;20201;-78
2022/01/21 07:07:49;;;;;;;14.15;2.40;;;;;;;;;;5108257;28;20503;-78
2022/01/21 07:10:16;;;;;;;11.57;2.00;;;;;;;;;;5108730;28;20052;-78
2022/01/21 07:12:43;;;;;;;7.95;1.88;;;;;;;;;;5091197;28;20491;-78
2022/01/21 07:15:10;;;;;;;14.30;2.10;;;;;;;;;;5086677;27;20821;-78
2022/01/21 07:17:36;;;;;;;7.95;2.08;;;;;;;;;;5090785;28;20109;-78
2022/01/21 07:20:04;;;;;;;15.85;2.10;;;;;;;;;;5108238;28;20052;-78
2022/01/21 07:22:31;;;;;;;6.93;2.40;;;;;;;;;;5108567;28;20125;-78
2022/01/21 07:24:57;;;;;;;13.00;2.05;;;;;;;;;;5091060;28;20052;-78
2022/01/21 07:27:24;;;;;;;11.32;2.20;;;;;;;;;;5108739;28;20774;-78
2022/01/21 07:29:50;;;;;;;15.93;2.53;;;;;;;;;;5090193;28;20121;-78
2022/01/21 07:32:17;;;;;;;12.25;2.35;;;;;;;;;;5091650;28;20111;-78
2022/01/21 07:34:43;;;;;;;9.75;2.15;;;;;;;;;;5086027;28;20055;-78
2022/01/21 07:37:09;;;;;;;8.55;2.50;;;;;;;;;;5090549;28;20102;-78
2022/01/21 07:39:36;;;;;;;7.95;2.40;;;;;;;;;;5108853;28;20152;-78
2022/01/21 07:42:03;;;;;;;6.47;1.92;;;;;;;;;;5090526;28;20080;-78
2022/01/21 07:44:29;;;;;;;7.90;2.20;;;;;;;;;;5108463;28;20060;-78
2022/01/21 07:46:55;;;;;;;11.45;2.45;;;;;;;;;;5089886;28;20518;-78
2022/01/21 07:49:22;;;;;;;10.93;2.42;;;;;;;;;;5080033;28;20687;-78
2022/01/21 07:51:48;;;;;;;8.65;2.38;;;;;;;;;;5090065;28;20079;-78
2022/01/21 07:54:15;;;;;;;10.73;2.80;;;;;;;;;;5090510;28;20089;-78
2022/01/21 07:56:41;;;;;;;16.98;2.83;;;;;;;;;;5107964;28;20056;-78
2022/01/21 07:59:09;;;;;;;12.50;2.53;;;;;;;;;;5090798;28;20052;-78
2022/01/21 08:01:35;;;;;;;15.05;2.65;;;;;;;;;;5107348;28;20088;-78
2022/01/21 08:04:03;;;;;;;13.73;3.25;;;;;;;;;;5107549;28;20518;-78
2022/01/21 08:06:33;;;;;;;8.75;3.40;;;;;;;;;;5081384;28;20059;-77
2022/01/21 08:08:59;;;;;;;9.15;3.38;;;;;;;;;;5103862;27;20143;-77
2022/01/21 08:11:26;;;;;;;13.50;3.53;;;;;;;;;;5091076;28;20215;-78
2022/01/21 08:13:52;;;;;;;9.27;2.78;;;;;;;;;;5089043;28;20105;-78
2022/01/21 08:16:19;;;;;;;11.93;3.63;;;;;;;;;;5088269;28;20126;-77
2022/01/21 08:18:46;;;;;;;15.18;3.65;;;;;;;;;;5088894;28;20598;-77
2022/01/21 08:21:18;;;;;;;11.30;3.30;;;;;;;;;;5088366;28;20083;-77
2022/01/21 08:23:46;;;;;;;8.52;2.67;;;;;;;;;;5085699;28;21030;-77
2022/01/21 08:26:12;;;;;;;9.93;3.00;;;;;;;;;;5091925;28;20086;-77
2022/01/21 08:28:38;;;;;;;10.15;3.13;;;;;;;;;;5091744;28;20082;-77
2022/01/21 08:31:05;;;;;;;9.38;2.70;;;;;;;;;;5111060;27;20051;-77
2022/01/21 08:33:31;;;;;;;16.38;2.80;;;;;;;;;;5092248;28;20052;-77
2022/01/21 08:35:58;;;;;;;14.05;3.10;;;;;;;;;;5093026;28;20079;-77
2022/01/21 08:38:24;;;;;;;14.48;3.47;;;;;;;;;;5088763;28;20048;-77
2022/01/21 08:40:51;;;;;;;9.52;3.35;;;;;;;;;;5088879;28;20858;-77
2022/01/21 08:43:17;;;;;;;21.67;4.00;;;;;;;;;;5106030;28;20060;-77
2022/01/21 08:45:43;;;;;;;10.25;3.25;;;;;;;;;;5109161;27;20091;-77
2022/01/21 08:48:10;;;;;;;10.55;3.10;;;;;;;;;;5090017;28;20052;-77
2022/01/21 08:50:37;;;;;;;11.82;3.40;;;;;;;;;;5102767;28;20141;-77
2022/01/21 08:53:09;;;;;;;12.65;4.00;;;;;;;;;;5108264;28;20063;-77
2022/01/21 08:55:36;;;;;;;12.15;3.35;;;;;;;;;;5105695;27;20538;-77
2022/01/21 08:58:02;;;;;;;13.07;4.03;;;;;;;;;;5077645;28;20507;-77
2022/01/21 09:00:28;;;;;;;16.90;6.03;;;;;;;;;;5091680;28;20907;-77
2022/01/21 09:02:55;;;;;;;12.02;4.43;;;;;;;;;;5085523;28;20075;-78
2022/01/21 09:05:21;;;;;;;12.75;3.78;;;;;;;;;;5092184;27;20046;-78
2022/01/21 09:07:48;;;;;;;13.85;4.05;;;;;;;;;;5111048;27;20102;-78
2022/01/21 09:10:14;;;;;;;17.55;4.70;;;;;;;;;;5083561;28;20550;-78
2022/01/21 09:12:41;;;;;;;21.55;5.75;;;;;;;;;;5091742;28;20040;-78
2022/01/21 09:15:08;;;;;;;18.45;4.80;;;;;;;;;;5103269;28;20109;-79
2022/01/21 09:17:36;;;;;;;20.38;5.30;;;;;;;;;;5111490;28;20577;-78
2022/01/21 09:20:03;;;;;;;21.08;5.47;;;;;;;;;;5089054;28;20161;-78
2022/01/21 09:22:29;;;;;;;16.83;4.07;;;;;;;;;;5093639;28;20060;-78
2022/01/21 09:24:55;;;;;;;19.30;4.82;;;;;;;;;;5091728;28;20114;-78
2022/01/21 09:27:22;;;;;;;12.10;4.25;;;;;;;;;;5112606;27;20056;-78
2022/01/21 09:29:48;;;;;;;14.07;3.20;;;;;;;;;;5091748;28;20052;-78
2022/01/21 09:32:15;;;;;;;12.23;2.15;;;;;;;;;;5091660;28;20056;-78
2022/01/21 09:34:42;;;;;;;15.75;2.72;;;;;;;;;;5110687;27;20052;-78
2022/01/21 09:37:08;;;;;;;10.52;2.63;;;;;;;;;;5091350;28;20048;-78
2022/01/21 09:39:34;;;;;;;9.52;2.78;;;;;;;;;;5093057;28;20094;-78
2022/01/21 09:42:01;;;;;;;10.50;3.25;;;;;;;;;;5110932;27;20111;-78
2022/01/21 09:44:28;;;;;;;18.52;3.00;;;;;;;;;;5111641;28;20124;-78
2022/01/21 09:46:57;;;;;;;16.08;3.20;;;;;;;;;;5092335;27;20060;-78
2022/01/21 09:49:26;;;;;;;18.27;3.08;;;;;;;;;;5092797;28;20048;-78
2022/01/21 09:52:03;;;;;;;10.98;2.38;;;;;;;;;;5090571;28;20087;-77
2022/01/21 09:54:33;;;;;;;13.20;2.58;;;;;;;;;;5107748;28;20074;-78
2022/01/21 09:57:01;;;;;;;20.35;3.65;;;;;;;;;;5107372;27;20060;-78
2022/01/21 09:59:29;;;;;;;15.27;2.42;;;;;;;;;;5094373;27;20121;-78
2022/01/21 10:01:56;;;;;;;15.57;2.63;;;;;;;;;;5096482;28;20079;-78
2022/01/21 10:04:26;;;;;;;18.60;3.47;;;;;;;;;;5081744;28;20048;-78
2022/01/21 10:06:53;;;;;;;16.90;3.92;;;;;;;;;;5102811;28;20083;-78
2022/01/21 10:09:21;;;;;;;17.17;2.67;;;;;;;;;;5110022;28;20056;-78
2022/01/21 10:11:49;;;;;;;17.27;2.60;;;;;;;;;;5110791;28;20114;-78
2022/01/21 10:14:16;;;;;;;17.35;2.25;;;;;;;;;;5091635;28;20056;-78
2022/01/21 10:16:43;;;;;;;13.02;2.38;;;;;;;;;;5100829;28;20322;-78
2022/01/21 10:19:11;;;;;;;20.60;3.28;;;;;;;;;;5096489;28;20088;-78
2022/01/21 10:21:39;;;;;;;14.48;2.40;;;;;;;;;;5082651;28;20048;-78
2022/01/21 10:24:10;;;;;;;17.00;2.25;;;;;;;;;;5109126;27;20048;-78
2022/01/21 10:26:47;;;;;;;15.80;2.38;;;;;;;;;;5107858;27;20079;-76
2022/01/21 10:29:14;;;;;;;18.20;2.10;;;;;;;;;;5107906;27;20605;-76
2022/01/21 10:31:50;;;;;;;14.50;2.20;;;;;;;;;;5089485;27;20523;-76
2022/01/21 10:34:22;;;;;;;18.60;2.50;;;;;;;;;;5106865;27;20081;-76
2022/01/21 10:36:54;;;;;;;21.17;5.88;;;;;;;;;;5106614;27;20098;-76
2022/01/21 10:39:29;;;;;;;14.57;2.67;;;;;;;;;;5091583;28;20056;-76
2022/01/21 10:41:57;;;;;;;12.15;2.58;;;;;;;;;;5103935;27;21194;-76
2022/01/21 10:44:30;;;;;;;15.32;1.55;;;;;;;;;;5106169;27;20052;-76
2022/01/21 10:47:05;;;;;;;14.05;2.05;;;;;;;;;;5100631;27;20084;-76
2022/01/21 10:49:32;;;;;;;10.30;2.17;;;;;;;;;;5077066;28;20076;-76
2022/01/21 10:51:58;;;;;;;14.32;2.65;;;;;;;;;;5084912;28;20574;-76
2022/01/21 10:54:29;;;;;;;10.02;2.03;;;;;;;;;;5082622;28;20052;-76
2022/01/21 10:57:13;;;;;;;11.77;2.60;;;;;;;;;;5096536;28;20697;-77
2022/01/21 10:59:48;;;;;;;8.02;2.15;;;;;;;;;;5084116;28;20088;-77
2022/01/21 11:02:26;;;;;;;11.43;2.00;;;;;;;;;;5091044;28;20125;-77
2022/01/21 11:04:52;;;;;;;15.68;1.95;;;;;;;;;;5084913;28;20044;-77
2022/01/21 11:07:37;;;;;;;11.43;2.50;;;;;;;;;;5107175;27;20201;-77
2022/01/21 11:10:04;;;;;;;15.13;2.20;;;;;;;;;;5086204;28;20110;-76
2022/01/21 11:12:32;;;;;;;13.85;2.28;;;;;;;;;;5084801;28;20097;-76
2022/01/21 11:15:02;;;;;;;17.20;2.30;;;;;;;;;;5100764;27;20056;-77
2022/01/21 11:17:28;;;;;;;15.23;2.42;;;;;;;;;;5087541;28;20048;-77
2022/01/21 11:20:07;;;;;;;18.15;2.70;;;;;;;;;;5087494;28;20052;-76
2022/01/21 11:22:52;;;;;;;9.73;2.33;;;;;;;;;;5097578;27;20052;-77
2022/01/21 11:25:38;;;;;;;15.15;2.47;;;;;;;;;;5089008;27;20056;-76
2022/01/21 11:28:05;;;;;;;11.15;1.77;;;;;;;;;;5091603;28;20145;-77
2022/01/21 11:30:32;;;;;;;14.23;1.98;;;;;;;;;;5095597;28;20055;-77
2022/01/21 11:32:58;;;;;;;13.13;2.45;;;;;;;;;;5086146;28;20829;-77
2022/01/21 11:35:26;;;;;;;15.55;2.85;;;;;;;;;;5091472;28;20040;-79
2022/01/21 11:37:52;;;;;;;12.60;3.20;;;;;;;;;;5110443;28;20099;-79
2022/01/21 11:40:19;;;;;;;15.02;3.65;;;;;;;;;;5089966;28;20082;-77
2022/01/21 11:42:45;;;;;;;14.07;2.63;;;;;;;;;;5106553;28;20157;-76
2022/01/21 11:50:45;;;;;;;17.73;3.15;;;;;;;;;;5104668;27;20574;-77
2022/01/21 11:53:12;;;;;;;16.08;2.67;;;;;;;;;;5108715;27;20155;-75
2022/01/21 11:55:41;;;;;;;11.48;2.28;;;;;;;;;;5085738;28;20060;-78
2022/01/21 11:58:12;;;;;;;20.17;2.58;;;;;;;;;;5085783;28;20048;-75
2022/01/21 12:00:40;;;;;;;16.38;2.72;;;;;;;;;;5105898;27;20079;-76
2022/01/21 12:03:07;;;;;;;15.10;1.70;;;;;;;;;;5102278;28;20053;-76
2022/01/21 12:05:36;;;;;;;15.73;2.03;;;;;;;;;;5106852;27;20048;-75
2022/01/21 12:08:06;;;;;;;13.18;2.47;;;;;;;;;;5110310;28;20084;-75
2022/01/21 12:10:40;;;;;;;16.35;2.92;;;;;;;;;;5109860;27;20084;-76
2022/01/21 12:13:10;;;;;;;10.70;2.22;;;;;;;;;;5088184;27;20056;-76
2022/01/21 12:20:54;;;;;;;13.98;2.15;;;;;;;;;;5104657;27;20592;-76
2022/01/21 12:23:22;;;;;;;11.43;2.17;;;;;;;;;;5087967;28;20507;-76
2022/01/21 12:26:07;;;;;;;12.02;1.67;;;;;;;;;;5090282;28;20087;-75
2022/01/21 12:28:33;;;;;;;13.45;2.17;;;;;;;;;;5104975;28;20532;-76
2022/01/21 12:31:00;;;;;;;11.75;3.15;;;;;;;;;;5091238;28;20251;-76
2022/01/21 12:33:49;;;;;;;20.20;2.90;;;;;;;;;;5091724;28;20056;-76
2022/01/21 12:36:16;;;;;;;11.38;2.60;;;;;;;;;;5090411;28;20109;-75
2022/01/21 12:41:15;;;;;;;8.63;2.15;;;;;;;;;;5109855;28;20076;-75
2022/01/21 12:43:46;;;;;;;11.52;2.92;;;;;;;;;;5108543;28;20512;-75
2022/01/21 12:46:15;;;;;;;15.32;2.05;;;;;;;;;;5111226;27;20548;-76
2022/01/21 12:48:46;;;;;;;15.27;2.38;;;;;;;;;;5091771;28;20135;-76
2022/01/21 12:51:18;;;;;;;;;;;;;;;;;;5092440;28;20623;-76
2022/01/21 12:56:48;;;;;;;12.23;2.42;;;;;;;;;;5108164;28;20051;-76
2022/01/21 12:59:15;;;;;;;8.55;1.90;;;;;;;;;;5108507;27;20142;-76
2022/01/21 13:01:42;;;;;;;8.90;1.95;;;;;;;;;;5090847;28;20102;-76
2022/01/21 13:04:12;;;;;;;11.85;1.70;;;;;;;;;;5108288;28;20056;-76
2022/01/21 13:06:47;;;;;;;10.77;1.85;;;;;;;;;;5091309;28;20117;-76
2022/01/21 13:09:20;;;;;;;12.60;2.05;;;;;;;;;;5091660;28;20462;-76
2022/01/21 13:11:55;;;;;;;10.57;1.67;;;;;;;;;;5083380;28;20102;-77
2022/01/21 13:17:00;;;;;;;17.75;2.45;;;;;;;;;;5108293;27;20056;-76
2022/01/21 13:19:27;;;;;;;13.75;2.30;;;;;;;;;;5090113;28;20056;-76
2022/01/21 13:21:53;;;;;;;11.18;1.85;;;;;;;;;;5108474;28;20183;-76
2022/01/21 13:24:27;;;;;;;10.35;2.00;;;;;;;;;;5105964;28;20140;-76
2022/01/21 13:26:54;;;;;;;13.38;2.42;;;;;;;;;;5109202;27;20090;-76
2022/01/21 13:29:29;;;;;;;10.85;1.90;;;;;;;;;;5106351;28;21010;-76
2022/01/21 13:31:56;;;;;;;10.02;1.67;;;;;;;;;;5086812;27;20135;-76
2022/01/21 13:34:33;;;;;;;9.77;1.60;;;;;;;;;;5110162;27;20548;-76
2022/01/21 13:37:00;;;;;;;14.60;2.28;;;;;;;;;;5108695;28;20091;-76
2022/01/21 13:39:28;;;;;;;12.32;2.20;;;;;;;;;;5093295;27;20465;-76
2022/01/21 13:41:59;;;;;;;8.50;1.98;;;;;;;;;;5088361;28;20056;-76
2022/01/21 13:44:30;;;;;;;16.40;2.75;;;;;;;;;;5102402;28;20102;-76
2022/01/21 13:46:57;;;;;;;15.50;2.15;;;;;;;;;;5097001;27;20094;-76
2022/01/21 13:49:25;;;;;;;17.00;3.83;;;;;;;;;;5090568;28;20087;-76
2022/01/21 13:52:12;;;;;;;12.77;2.42;;;;;;;;;;5104790;28;20084;-76
2022/01/21 13:54:46;;;;;;;23.23;4.00;;;;;;;;;;5100020;27;20048;-76
2022/01/21 13:57:13;;;;;;;16.98;5.88;;;;;;;;;;5106481;27;20827;-76
2022/01/21 13:59:45;;;;;;;14.15;2.95;;;;;;;;;;5084730;28;20106;-76
2022/01/21 14:02:13;;;;;;;19.30;2.60;;;;;;;;;;5083305;28;20052;-76
2022/01/21 14:04:40;;;;;;;10.10;1.88;;;;;;;;;;5100726;27;20171;-76
2022/01/21 14:07:24;;;;;;;14.02;1.95;;;;;;;;;;5090382;28;20060;-76
2022/01/21 14:09:50;;;;;;;13.40;2.08;;;;;;;;;;5088638;28;20084;-76
2022/01/21 14:12:17;;;;;;;12.82;2.42;;;;;;;;;;5089450;28;20071;-76
2022/01/21 14:14:44;;;;;;;10.93;1.77;;;;;;;;;;5089106;28;20056;-76
2022/01/21 14:17:11;;;;;;;7.25;1.48;;;;;;;;;;5090500;28;20568;-76
2022/01/21 14:19:38;;;;;;;14.02;2.17;;;;;;;;;;5085989;28;20106;-76
2022/01/21 14:22:08;;;;;;;7.55;1.45;;;;;;;;;;5089333;28;20103;-75
2022/01/21 14:24:44;;;;;;;5.75;1.10;;;;;;;;;;5106652;27;20056;-76
2022/01/21 14:27:16;;;;;;;5.25;1.50;;;;;;;;;;5089874;27;20075;-76
2022/01/21 14:29:48;;;;;;;12.90;1.65;;;;;;;;;;5088378;28;20221;-76
2022/01/21 14:32:20;;;;;;;10.07;2.00;;;;;;;;;;5088870;28;20052;-76
2022/01/21 14:34:47;;;;;;;8.00;1.45;;;;;;;;;;5088714;28;20569;-76
2022/01/21 14:37:15;;;;;;;10.10;2.15;;;;;;;;;;5087342;28;20110;-75
2022/01/21 14:39:46;;;;;;;8.60;1.70;;;;;;;;;;5106915;27;20121;-76
2022/01/21 14:42:23;;;;;;;8.95;1.55;;;;;;;;;;5106409;27;20511;-76
2022/01/21 14:44:50;;;;;;;8.95;1.33;;;;;;;;;;5086090;27;20133;-76
2022/01/21 14:47:18;;;;;;;14.35;1.40;;;;;;;;;;5087659;28;20083;-76
2022/01/21 14:49:46;;;;;;;10.73;1.83;;;;;;;;;;5105094;27;20048;-76
2022/01/21 14:54:52;;;;;;;10.15;1.77;;;;;;;;;;5106164;27;20083;-75
2022/01/21 14:57:26;;;;;;;9.30;2.25;;;;;;;;;;5108272;28;20051;-76
2022/01/21 14:59:53;;;;;;;15.80;2.50;;;;;;;;;;5089129;28;20568;-76
2022/01/21 15:02:46;;;;;;;15.75;2.38;;;;;;;;;;5089534;28;20198;-76
2022/01/21 15:05:14;;;;;;;8.07;2.20;;;;;;;;;;5102166;27;20062;-76
2022/01/21 15:07:42;;;;;;;12.40;2.55;;;;;;;;;;5088943;28;20109;-76
2022/01/21 15:10:22;;;;;;;12.90;2.42;;;;;;;;;;5100755;28;20534;-76
2022/01/21 15:15:35;;;;;;;11.20;2.22;;;;;;;;;;5106148;27;20110;-76
2022/01/21 15:18:02;;;;;;;10.75;2.10;;;;;;;;;;5087346;27;20063;-76
2022/01/21 15:20:31;;;;;;;8.05;1.80;;;;;;;;;;5106827;28;20060;-76
2022/01/21 15:22:58;;;;;;;10.43;2.35;;;;;;;;;;5089166;28;20056;-76
2022/01/21 15:25:25;;;;;;;19.75;2.67;;;;;;;;;;5106274;28;20132;-76
2022/01/21 15:27:51;;;;;;;14.32;2.20;;;;;;;;;;5078864;28;20982;-75
2022/01/21 15:30:17;;;;;;;15.52;2.33;;;;;;;;;;5088962;28;20072;-76
2022/01/21 15:32:44;;;;;;;16.38;2.38;;;;;;;;;;5086825;28;20056;-76
2022/01/21 15:35:10;;;;;;;15.55;2.33;;;;;;;;;;5100837;27;20083;-76
2022/01/21 15:37:37;;;;;;;15.35;2.78;;;;;;;;;;5089164;28;20052;-76
2022/01/21 15:40:04;;;;;;;13.32;2.50;;;;;;;;;;5105747;28;20087;-76
2022/01/21 15:42:30;;;;;;;14.88;2.20;;;;;;;;;;5088601;28;21077;-76
2022/01/21 15:45:17;;;;;;;11.18;2.00;;;;;;;;;;5080174;27;20151;-76
2022/01/21 15:47:44;;;;;;;17.00;2.42;;;;;;;;;;5109904;27;20138;-76
2022/01/21 15:50:11;;;;;;;16.15;2.25;;;;;;;;;;5102322;27;20072;-76
2022/01/21 15:52:38;;;;;;;15.07;2.67;;;;;;;;;;5087017;28;20496;-76
2022/01/21 15:55:06;;;;;;;18.33;2.95;;;;;;;;;;5102855;27;20150;-76
2022/01/21 15:57:33;;;;;;;15.40;2.58;;;;;;;;;;5089251;28;20056;-76